createdAt,value
2019-02-22T07:49:41.823Z,37.65
2019-02-22T07:50:11.727Z,37.30
2019-02-22T07:50:40.993Z,37.88
2019-02-22T07:51:10.190Z,38.48
2019-02-22T07:52:17.018Z,17.40
2019-02-22T08:13:24.045Z,13.78
2019-02-22T08:14:28.356Z,13.53
2019-02-22T08:14:58.261Z,14.25
2019-02-22T08:15:28.915Z,14.58
2019-02-22T08:15:58.431Z,14.50
2019-02-22T08:16:30.107Z,16.45
2019-02-22T08:17:02.148Z,15.25
2019-02-22T08:17:32.149Z,16.42
2019-02-22T08:18:02.790Z,13.90
2019-02-22T08:18:34.348Z,16.05
2019-02-22T08:19:06.756Z,14.87
2019-02-22T08:19:37.612Z,14.35
2019-02-22T08:20:09.534Z,13.60
2019-02-22T08:20:43.714Z,11.43
2019-02-22T08:21:13.715Z,12.90
2019-02-22T08:21:44.555Z,11.97
2019-02-22T08:22:14.391Z,13.20
2019-02-22T08:22:43.915Z,13.55
2019-02-22T08:23:15.129Z,14.10
2019-02-22T08:23:44.951Z,15.58
2019-02-22T08:24:14.514Z,14.87
2019-02-22T08:24:44.073Z,15.45
2019-02-22T08:25:15.404Z,15.95
2019-02-22T08:25:47.343Z,16.97
2019-02-22T08:26:16.890Z,17.87
2019-02-22T08:26:47.422Z,17.80
2019-02-22T08:27:18.249Z,18.55
2019-02-22T08:27:53.759Z,18.55
2019-02-22T08:28:23.015Z,18.52
2019-02-22T08:28:54.931Z,19.52
2019-02-22T08:29:24.979Z,21.75
2019-02-22T08:29:54.459Z,20.75
2019-02-22T08:30:24.257Z,20.60
2019-02-22T08:30:55.035Z,22.07
2019-02-22T08:31:26.689Z,22.10
2019-02-22T08:31:57.692Z,21.55
2019-02-22T08:32:29.619Z,22.80
2019-02-22T08:32:59.556Z,22.73
2019-02-22T08:33:33.891Z,21.77
2019-02-22T08:34:07.603Z,21.90
2019-02-22T08:34:42.873Z,22.95
2019-02-22T08:35:18.798Z,23.25
2019-02-22T08:35:49.995Z,22.17
2019-02-22T08:36:21.102Z,23.45
2019-02-22T08:36:55.092Z,23.38
2019-02-22T08:37:27.718Z,24.60
2019-02-22T08:38:02.647Z,24.47
2019-02-22T08:38:35.722Z,24.60
2019-02-22T08:39:08.766Z,26.42
2019-02-22T08:39:42.836Z,26.73
2019-02-22T08:40:16.817Z,25.88
2019-02-22T08:40:50.916Z,27.90
2019-02-22T08:41:27.184Z,27.37
2019-02-22T08:42:01.803Z,28.80
2019-02-22T08:42:38.335Z,28.73
2019-02-22T08:43:14.293Z,28.67
2019-02-22T08:43:48.577Z,27.07
2019-02-22T08:44:22.587Z,27.75
2019-02-22T08:44:57.067Z,26.55
2019-02-22T08:45:31.854Z,26.73
2019-02-22T08:46:08.136Z,26.50
2019-02-22T08:46:42.787Z,24.32
2019-02-22T08:47:19.094Z,26.48
2019-02-22T08:47:52.308Z,24.47
2019-02-22T08:48:24.429Z,24.67
2019-02-22T08:48:58.189Z,25.50
2019-02-22T08:49:29.027Z,24.80
2019-02-22T08:49:59.171Z,23.80
2019-02-22T08:50:28.197Z,23.60
2019-02-22T08:51:02.338Z,24.32
2019-02-22T08:51:36.918Z,25.08
2019-02-22T08:52:11.156Z,23.70
2019-02-22T08:52:43.051Z,23.55
2019-02-22T08:53:15.978Z,24.37
2019-02-22T08:53:51.517Z,22.73
2019-02-22T08:54:24.248Z,23.20
2019-02-22T08:54:57.519Z,22.75
2019-02-22T08:55:32.340Z,22.10
2019-02-22T08:56:03.729Z,22.10
2019-02-22T08:56:34.667Z,20.92
2019-02-22T08:57:04.323Z,22.22
2019-02-22T08:57:34.968Z,22.77
2019-02-22T08:58:04.343Z,23.07
2019-02-22T08:58:33.431Z,23.27
2019-02-22T08:59:02.921Z,23.07
2019-02-22T08:59:35.531Z,23.18
2019-02-22T09:00:10.052Z,22.02
2019-02-22T09:00:43.999Z,22.50
2019-02-22T09:01:17.750Z,22.58
2019-02-22T09:01:49.363Z,22.35
2019-02-22T09:02:20.414Z,22.70
2019-02-22T09:02:50.074Z,21.48
2019-02-22T09:03:19.899Z,21.62
2019-02-22T09:03:51.048Z,22.02
2019-02-22T09:04:21.609Z,21.77
2019-02-22T09:05:20.813Z,20.37
2019-02-22T09:05:51.878Z,20.75
2019-02-22T09:06:24.362Z,20.88
2019-02-22T09:06:56.740Z,20.60
2019-02-22T09:07:29.694Z,20.68
2019-02-22T09:08:03.543Z,20.55
2019-02-22T09:08:35.102Z,21.12
2019-02-22T09:09:07.395Z,21.97
2019-02-22T09:09:36.965Z,20.37
2019-02-22T09:10:09.825Z,20.75
2019-02-22T09:10:40.719Z,21.52
2019-02-22T09:11:10.703Z,19.95
2019-02-22T09:11:42.081Z,21.82
2019-02-22T09:12:11.685Z,20.62
2019-02-22T09:12:42.785Z,20.43
2019-02-22T09:13:12.281Z,20.57
2019-02-22T09:13:44.653Z,20.20
2019-02-22T09:14:18.261Z,19.98
2019-02-22T09:14:50.173Z,19.75
2019-02-22T09:15:21.573Z,20.20
2019-02-22T09:15:53.353Z,19.62
2019-02-22T09:16:25.614Z,19.02
2019-02-22T09:16:55.646Z,20.30
2019-02-22T09:17:26.341Z,19.95
2019-02-22T09:17:59.380Z,21.02
2019-02-22T09:18:33.582Z,20.68
2019-02-22T09:19:06.843Z,20.60
2019-02-22T09:19:41.085Z,20.70
2019-02-22T09:20:15.120Z,20.77
2019-02-22T09:20:48.060Z,19.87
2019-02-22T09:21:20.251Z,19.92
2019-02-22T09:21:54.745Z,19.40
2019-02-22T09:22:30.222Z,18.30
2019-02-22T09:23:07.171Z,18.98
2019-02-22T09:23:36.496Z,18.70
2019-02-22T09:24:11.201Z,20.08
2019-02-22T09:24:42.731Z,18.80
2019-02-22T09:25:14.415Z,18.80
2019-02-22T09:25:45.957Z,18.35
2019-02-22T09:26:16.071Z,18.80
2019-02-22T09:26:45.159Z,18.62
2019-02-22T09:27:14.414Z,19.42
2019-02-22T09:27:44.190Z,19.92
2019-02-22T09:28:13.428Z,20.35
2019-02-22T09:28:44.841Z,19.20
2019-02-22T09:29:14.529Z,20.02
2019-02-22T09:29:58.151Z,20.92
2019-02-22T09:30:21.725Z,19.07
2019-02-22T09:30:54.773Z,19.95
2019-02-22T09:31:26.628Z,19.75
2019-02-22T09:32:17.034Z,20.00
2019-02-22T09:32:47.055Z,18.57
2019-02-22T09:33:17.327Z,19.07
2019-02-22T09:33:46.712Z,18.75
2019-02-22T09:34:16.377Z,21.12
2019-02-22T09:34:46.233Z,21.60
2019-02-22T09:35:16.003Z,19.87
2019-02-22T09:35:45.834Z,20.32
2019-02-22T09:36:15.411Z,19.82
2019-02-22T09:36:45.455Z,19.75
2019-02-22T09:37:17.536Z,20.48
2019-02-22T09:37:49.080Z,19.52
2019-02-22T09:38:19.565Z,21.07
2019-02-22T09:38:48.760Z,20.35
2019-02-22T09:39:17.967Z,19.98
2019-02-22T09:39:49.054Z,19.80
2019-02-22T09:40:19.637Z,19.40
2019-02-22T09:40:49.873Z,18.77
2019-02-22T09:41:19.174Z,18.42
2019-02-22T09:41:50.984Z,19.00
2019-02-22T09:42:24.174Z,19.10
2019-02-22T09:42:55.588Z,19.05
2019-02-22T09:43:27.583Z,19.17
2019-02-22T09:43:57.110Z,18.95
2019-02-22T09:44:27.202Z,19.27
2019-02-22T09:44:58.665Z,20.37
2019-02-22T09:45:28.714Z,19.57
2019-02-22T09:45:57.986Z,19.75
2019-02-22T09:46:27.740Z,19.82
2019-02-22T09:46:56.934Z,19.67
2019-02-22T09:47:26.134Z,20.15
2019-02-22T09:47:55.426Z,18.52
2019-02-22T09:48:25.804Z,16.97
2019-02-22T09:48:55.795Z,18.20
2019-02-22T09:49:24.995Z,18.12
2019-02-22T09:49:54.791Z,18.15
2019-02-22T09:50:24.856Z,17.60
2019-02-22T09:50:54.396Z,17.90
2019-02-22T09:51:24.583Z,18.17
2019-02-22T09:52:22.436Z,17.85
2019-02-22T09:52:52.255Z,16.87
2019-02-22T09:53:21.591Z,17.98
2019-02-22T09:53:51.190Z,18.07
2019-02-22T09:54:20.329Z,18.60
2019-02-22T09:54:50.885Z,17.67
2019-02-22T09:55:22.260Z,18.50
2019-02-22T09:55:51.599Z,18.17
2019-02-22T09:56:21.022Z,19.45
2019-02-22T09:56:50.997Z,17.65
2019-02-22T09:57:20.410Z,17.80
2019-02-22T09:57:50.355Z,16.15
2019-02-22T09:58:21.312Z,16.77
2019-02-22T09:58:52.727Z,17.92
2019-02-22T09:59:24.165Z,16.82
2019-02-22T09:59:55.858Z,17.45
2019-02-22T10:00:27.225Z,17.87
2019-02-22T10:00:57.260Z,19.23
2019-02-22T10:01:26.916Z,16.87
2019-02-22T10:01:56.494Z,20.05
2019-02-22T10:02:26.287Z,19.35
2019-02-22T10:02:55.683Z,17.85
2019-02-22T10:03:26.214Z,18.23
2019-02-22T10:03:58.162Z,19.42
2019-02-22T10:04:27.592Z,18.37
2019-02-22T10:04:57.579Z,18.30
2019-02-22T10:05:27.446Z,18.45
2019-02-22T10:05:57.076Z,17.48
2019-02-22T10:06:28.239Z,17.35
2019-02-22T10:07:07.898Z,17.40
2019-02-22T10:07:38.702Z,17.70
2019-02-22T10:08:15.610Z,16.80
2019-02-22T10:08:49.493Z,16.48
2019-02-22T10:09:23.009Z,16.62
2019-02-22T10:09:57.072Z,17.07
2019-02-22T10:10:31.387Z,17.25
2019-02-22T10:11:05.016Z,16.23
2019-02-22T10:11:39.380Z,16.40
2019-02-22T10:12:12.976Z,15.60
2019-02-22T10:12:47.493Z,16.57
2019-02-22T10:13:21.434Z,16.82
2019-02-22T10:14:06.272Z,16.10
2019-02-22T10:14:33.912Z,17.00
2019-02-22T10:15:16.571Z,15.98
2019-02-22T10:15:52.564Z,15.68
2019-02-22T10:16:28.699Z,16.27
2019-02-22T10:17:05.252Z,15.45
2019-02-22T10:17:39.778Z,16.00
2019-02-22T10:18:10.957Z,16.30
2019-02-22T10:18:42.761Z,16.25
2019-02-22T10:19:14.638Z,17.67
2019-02-22T10:19:46.295Z,16.42
2019-02-22T10:20:20.565Z,17.02
2019-02-22T10:20:53.122Z,15.90
2019-02-22T10:21:24.064Z,15.32
2019-02-22T10:21:57.744Z,15.65
2019-02-22T10:22:27.333Z,15.85
2019-02-22T10:23:00.085Z,16.05
2019-02-22T10:23:30.930Z,16.05
2019-02-22T10:24:01.024Z,17.60
2019-02-22T10:24:33.103Z,17.15
2019-02-22T10:25:04.296Z,16.93
2019-02-22T10:25:34.305Z,16.07
2019-02-22T10:26:03.733Z,17.40
2019-02-22T10:26:42.030Z,16.05
2019-02-22T10:27:15.077Z,16.77
2019-02-22T10:27:48.658Z,16.52
2019-02-22T10:28:20.552Z,14.85
2019-02-22T10:28:51.141Z,15.45
2019-02-22T10:29:25.904Z,17.07
2019-02-22T10:29:59.676Z,15.15
2019-02-22T10:30:31.833Z,15.63
2019-02-22T10:31:03.135Z,15.70
2019-02-22T10:31:34.539Z,14.90
2019-02-22T10:32:07.524Z,14.60
2019-02-22T10:32:37.041Z,16.20
2019-02-22T10:33:08.005Z,14.63
2019-02-22T10:33:41.022Z,15.50
2019-02-22T10:34:11.231Z,14.73
2019-02-22T10:35:10.227Z,14.75
2019-02-22T10:35:42.197Z,15.23
2019-02-22T10:36:12.187Z,16.20
2019-02-22T10:36:45.381Z,14.23
2019-02-22T10:37:19.061Z,13.90
2019-02-22T10:37:50.586Z,14.30
2019-02-22T10:38:22.040Z,14.85
2019-02-22T10:38:54.709Z,14.40
2019-02-22T10:39:28.396Z,15.65
2019-02-22T10:40:01.938Z,15.15
2019-02-22T10:40:32.285Z,14.07
2019-02-22T10:41:03.651Z,15.72
2019-02-22T10:41:34.339Z,14.30
2019-02-22T10:42:04.509Z,14.63
2019-02-22T10:42:36.454Z,15.25
2019-02-22T10:43:10.810Z,14.60
2019-02-22T10:43:44.021Z,14.87
2019-02-22T10:44:17.819Z,14.55
2019-02-22T10:44:45.550Z,14.98
2019-02-22T10:45:17.115Z,14.75
2019-02-22T10:45:49.044Z,14.55
2019-02-22T10:46:22.420Z,14.20
2019-02-22T10:46:56.526Z,13.62
2019-02-22T10:47:30.912Z,14.87
2019-02-22T10:48:02.477Z,14.23
2019-02-22T10:48:32.007Z,13.98
2019-02-22T10:49:01.723Z,15.53
2019-02-22T10:49:32.067Z,14.80
2019-02-22T10:50:01.738Z,14.05
2019-02-22T10:50:32.422Z,14.38
2019-02-22T10:51:02.290Z,13.80
2019-02-22T10:51:34.213Z,13.58
2019-02-22T10:52:04.471Z,14.25
2019-02-22T10:52:37.775Z,14.70
2019-02-22T10:53:07.774Z,14.47
2019-02-22T10:53:37.268Z,15.60
2019-02-22T10:54:10.937Z,13.62
2019-02-22T10:54:43.834Z,14.73
2019-02-22T10:55:17.163Z,14.18
2019-02-22T10:55:48.709Z,13.90
2019-02-22T10:56:20.151Z,13.03
2019-02-22T10:56:49.810Z,13.25
2019-02-22T10:57:21.539Z,13.35
2019-02-22T10:57:52.128Z,13.30
2019-02-22T10:58:23.386Z,12.90
2019-02-22T10:58:54.107Z,13.15
2019-02-22T10:59:26.192Z,12.90
2019-02-22T10:59:56.636Z,13.18
2019-02-22T11:00:26.281Z,14.00
2019-02-22T11:00:57.278Z,12.25
2019-02-22T11:01:27.718Z,13.13
2019-02-22T11:02:00.628Z,12.93
2019-02-22T11:02:34.033Z,13.20
2019-02-22T11:03:05.790Z,12.88
2019-02-22T11:03:39.160Z,12.80
2019-02-22T11:04:12.852Z,12.75
2019-02-22T11:04:44.421Z,12.85
2019-02-22T11:05:18.325Z,12.80
2019-02-22T11:05:51.364Z,12.55
2019-02-22T11:06:25.473Z,12.28
2019-02-22T11:07:01.255Z,12.20
2019-02-22T11:07:37.153Z,13.30
2019-02-22T11:08:11.104Z,12.30
2019-02-22T11:08:45.695Z,12.58
2019-02-22T11:09:20.560Z,12.37
2019-02-22T11:09:54.775Z,12.53
2019-02-22T11:10:29.259Z,12.28
2019-02-22T11:11:05.167Z,12.82
2019-02-22T11:11:39.710Z,12.45
2019-02-22T11:12:12.505Z,12.43
2019-02-22T11:12:46.482Z,12.13
2019-02-22T11:13:21.412Z,12.35
2019-02-22T11:13:55.703Z,12.15
2019-02-22T11:14:29.474Z,12.03
2019-02-22T11:15:01.933Z,12.82
2019-02-22T11:15:36.828Z,12.37
2019-02-22T11:16:11.418Z,12.25
2019-02-22T11:16:45.150Z,13.55
2019-02-22T11:17:20.262Z,13.83
2019-02-22T11:17:55.540Z,12.07
2019-02-22T11:18:42.402Z,13.93
2019-02-22T11:19:17.871Z,11.93
2019-02-22T11:19:55.539Z,12.93
2019-02-22T11:20:31.490Z,12.43
2019-02-22T11:21:07.262Z,13.13
2019-02-22T11:21:42.970Z,12.80
2019-02-22T11:22:17.692Z,14.30
2019-02-22T11:22:52.250Z,13.53
2019-02-22T11:23:26.165Z,14.20
2019-02-22T11:24:00.744Z,14.73
2019-02-22T11:24:33.502Z,13.90
2019-02-22T11:25:09.820Z,15.25
2019-02-22T11:25:42.036Z,14.85
2019-02-22T11:26:15.368Z,14.53
2019-02-22T11:26:49.029Z,12.85
2019-02-22T11:27:21.028Z,13.53
2019-02-22T11:27:55.074Z,12.95
2019-02-22T11:28:30.173Z,13.25
2019-02-22T11:29:05.030Z,12.45
2019-02-22T11:29:40.272Z,13.20
2019-02-22T11:30:18.316Z,11.75
2019-02-22T11:30:52.743Z,12.23
2019-02-22T11:31:28.122Z,12.82
2019-02-22T11:32:03.862Z,12.15
2019-02-22T11:32:38.395Z,12.20
2019-02-22T11:33:14.825Z,12.40
2019-02-22T11:33:49.248Z,14.23
2019-02-22T11:34:22.970Z,13.10
2019-02-22T11:34:57.057Z,12.63
2019-02-22T11:35:30.656Z,12.75
2019-02-22T11:36:06.690Z,13.05
2019-02-22T11:36:41.936Z,12.15
2019-02-22T11:37:16.698Z,12.75
2019-02-22T11:37:53.003Z,12.63
2019-02-22T11:38:28.438Z,13.55
2019-02-22T11:39:03.259Z,13.98
2019-02-22T11:39:38.660Z,14.05
2019-02-22T11:40:14.555Z,12.93
2019-02-22T11:40:50.235Z,12.63
2019-02-22T11:41:27.576Z,14.10
2019-02-22T11:42:02.913Z,14.38
2019-02-22T11:42:40.727Z,14.63
2019-02-22T11:43:21.024Z,13.93
2019-02-22T11:43:59.549Z,13.95
2019-02-22T11:44:40.203Z,14.98
2019-02-22T11:45:12.539Z,15.00
2019-02-22T11:45:49.816Z,14.87
2019-02-22T11:46:22.766Z,15.88
2019-02-22T11:47:00.457Z,15.03
2019-02-22T11:47:37.528Z,14.18
2019-02-22T11:48:14.157Z,15.03
2019-02-22T11:48:49.274Z,14.65
2019-02-22T11:49:24.779Z,15.35
2019-02-22T11:49:59.845Z,14.30
2019-02-22T11:50:35.546Z,15.78
2019-02-22T11:51:10.448Z,14.95
2019-02-22T11:51:48.924Z,15.95
2019-02-22T11:52:24.231Z,13.40
2019-02-22T11:52:59.838Z,14.73
2019-02-22T11:53:34.586Z,15.10
2019-02-22T11:54:09.055Z,15.20
2019-02-22T11:54:44.002Z,14.05
2019-02-22T11:55:18.559Z,14.87
2019-02-22T11:55:54.807Z,14.60
2019-02-22T11:56:29.327Z,14.45
2019-02-22T11:57:06.458Z,14.78
2019-02-22T11:57:40.142Z,14.85
2019-02-22T11:58:14.180Z,17.70
2019-02-22T11:58:49.554Z,17.62
2019-02-22T11:59:25.652Z,17.65
2019-02-22T12:00:00.473Z,17.10
2019-02-22T12:00:35.703Z,16.23
2019-02-22T12:01:10.446Z,16.95
2019-02-22T12:01:46.330Z,17.65
2019-02-22T12:02:16.518Z,15.65
2019-02-22T12:02:49.949Z,15.75
2019-02-22T12:03:29.667Z,15.32
2019-02-22T12:04:03.086Z,15.18
2019-02-22T12:04:39.908Z,14.93
2019-02-22T12:05:13.351Z,14.60
2019-02-22T12:05:46.944Z,14.55
2019-02-22T12:06:20.754Z,14.70
2019-02-22T12:06:50.893Z,14.70
2019-02-22T12:07:24.365Z,14.80
2019-02-22T12:07:58.029Z,14.28
2019-02-22T12:08:30.066Z,14.03
2019-02-22T12:09:04.440Z,14.00
2019-02-22T12:09:37.681Z,14.55
2019-02-22T12:10:11.608Z,14.23
2019-02-22T12:10:47.219Z,14.28
2019-02-22T12:11:23.138Z,13.93
2019-02-22T12:11:59.092Z,14.53
2019-02-22T12:12:35.623Z,13.85
2019-02-22T12:13:11.898Z,15.68
2019-02-22T12:13:48.115Z,14.95
2019-02-22T12:14:23.642Z,14.40
2019-02-22T12:14:59.332Z,15.38
2019-02-22T12:15:34.927Z,15.58
2019-02-22T12:16:12.151Z,14.90
2019-02-22T12:16:49.813Z,14.68
2019-02-22T12:17:24.677Z,16.23
2019-02-22T12:18:00.551Z,15.48
2019-02-22T12:18:36.579Z,15.40
2019-02-22T12:19:14.090Z,15.63
2019-02-22T12:19:49.650Z,15.03
2019-02-22T12:20:26.946Z,14.75
2019-02-22T12:21:03.847Z,15.60
2019-02-22T13:00:23.616Z,11.88
